createdAt,value
2019-03-21T00:00:06.036Z,26.55
2019-03-21T00:02:42.524Z,26.20
2019-03-21T00:05:26.969Z,26.30
2019-03-21T00:07:48.501Z,24.80
2019-03-21T00:11:08.229Z,26.73
2019-03-21T00:13:41.551Z,27.20
2019-03-21T00:16:14.888Z,26.23
2019-03-21T00:18:53.329Z,26.47
2019-03-21T00:21:27.670Z,27.82
2019-03-21T00:24:00.975Z,27.22
2019-03-21T00:26:34.054Z,27.17
2019-03-21T00:29:07.199Z,27.52
2019-03-21T00:31:41.129Z,26.73
2019-03-21T00:34:15.955Z,30.25
2019-03-21T00:36:47.238Z,28.30
2019-03-21T00:39:19.818Z,29.45
2019-03-21T00:41:51.307Z,28.42
2019-03-21T00:44:25.757Z,29.87
2019-03-21T00:46:56.998Z,30.32
2019-03-21T00:49:29.854Z,30.20
2019-03-21T00:52:04.105Z,32.20
2019-03-21T00:54:36.615Z,28.53
2019-03-21T00:57:21.185Z,30.30
2019-03-21T00:59:54.101Z,31.05
2019-03-21T01:02:26.921Z,30.17
2019-03-21T01:04:59.789Z,32.40
2019-03-21T01:07:38.127Z,31.40
2019-03-21T01:10:17.335Z,30.03
2019-03-21T01:12:52.550Z,31.75
2019-03-21T01:15:33.911Z,31.35
2019-03-21T01:18:05.469Z,32.08
2019-03-21T01:20:36.695Z,32.90
2019-03-21T01:23:10.453Z,33.30
2019-03-21T01:25:44.794Z,32.75
2019-03-21T01:28:18.250Z,32.60
2019-03-21T01:30:51.086Z,32.58
2019-03-21T01:33:27.028Z,34.03
2019-03-21T01:35:58.428Z,32.70
2019-03-21T01:38:33.699Z,34.30
2019-03-21T01:41:08.819Z,32.28
2019-03-21T01:43:41.874Z,32.90
2019-03-21T01:46:13.646Z,33.93
2019-03-21T01:48:45.993Z,33.10
2019-03-21T01:51:22.755Z,34.88
2019-03-21T01:53:59.307Z,31.48
2019-03-21T01:56:32.514Z,34.20
2019-03-21T01:59:09.810Z,33.08
2019-03-21T02:01:49.107Z,33.50
2019-03-21T02:04:23.657Z,33.55
2019-03-21T02:06:56.798Z,32.90
2019-03-21T02:09:29.040Z,33.78
2019-03-21T02:12:01.569Z,33.20
2019-03-21T02:14:51.615Z,33.10
2019-03-21T02:17:26.916Z,32.20
2019-03-21T02:20:06.825Z,32.38
2019-03-21T02:22:41.791Z,32.67
2019-03-21T02:25:21.612Z,32.33
2019-03-21T02:27:52.934Z,31.77
2019-03-21T02:30:28.135Z,33.97
2019-03-21T02:33:03.480Z,31.80
2019-03-21T02:35:34.857Z,31.75
2019-03-21T02:38:07.418Z,31.55
2019-03-21T02:40:38.721Z,33.08
2019-03-21T02:43:09.911Z,33.40
2019-03-21T02:45:41.172Z,31.80
2019-03-21T02:48:13.134Z,32.33
2019-03-21T02:50:51.051Z,32.30
2019-03-21T02:53:28.176Z,31.62
2019-03-21T02:55:59.479Z,32.03
2019-03-21T02:58:35.637Z,32.50
2019-03-21T03:01:06.898Z,33.30
2019-03-21T03:03:40.244Z,31.37
2019-03-21T03:06:12.144Z,30.85
2019-03-21T03:08:43.450Z,31.23
2019-03-21T03:11:15.605Z,31.37
2019-03-21T03:13:48.421Z,29.20
2019-03-21T03:16:19.872Z,30.10
2019-03-21T03:18:51.301Z,30.35
2019-03-21T03:21:22.691Z,29.15
2019-03-21T03:23:54.272Z,29.95
2019-03-21T03:26:25.594Z,29.75
2019-03-21T03:28:56.963Z,29.27
2019-03-21T03:31:28.281Z,30.67
2019-03-21T03:33:59.494Z,30.03
2019-03-21T03:36:33.114Z,29.90
2019-03-21T03:39:06.451Z,29.52
2019-03-21T03:41:37.889Z,29.35
2019-03-21T03:44:09.183Z,30.10
2019-03-21T03:46:41.403Z,30.60
2019-03-21T03:49:15.654Z,29.92
2019-03-21T03:51:46.885Z,31.07
2019-03-21T03:54:18.331Z,30.20
2019-03-21T03:56:49.751Z,30.32
2019-03-21T03:59:20.962Z,29.90
2019-03-21T04:01:52.384Z,31.57
2019-03-21T04:04:24.569Z,31.30
2019-03-21T04:06:55.995Z,31.20
2019-03-21T04:09:27.294Z,30.72
2019-03-21T04:11:58.737Z,29.92
2019-03-21T04:14:29.979Z,31.48
2019-03-21T04:17:01.285Z,31.37
2019-03-21T04:19:33.465Z,31.73
2019-03-21T04:22:04.916Z,31.07
2019-03-21T04:24:36.302Z,30.23
2019-03-21T04:27:07.544Z,31.82
2019-03-21T04:29:38.760Z,31.77
2019-03-21T04:32:09.944Z,31.90
2019-03-21T04:34:41.350Z,30.85
2019-03-21T04:37:12.657Z,30.97
2019-03-21T04:39:44.093Z,31.40
2019-03-21T04:42:15.292Z,31.03
2019-03-21T04:44:47.608Z,30.07
2019-03-21T04:47:18.838Z,32.30
2019-03-21T04:49:50.242Z,30.83
2019-03-21T04:52:21.491Z,31.80
2019-03-21T04:54:52.795Z,32.17
2019-03-21T04:57:24.032Z,30.48
2019-03-21T04:59:55.247Z,31.68
2019-03-21T05:02:26.507Z,32.35
2019-03-21T05:04:57.870Z,31.37
2019-03-21T05:07:30.938Z,31.97
2019-03-21T05:10:02.265Z,31.97
2019-03-21T05:12:33.596Z,32.13
2019-03-21T05:15:05.829Z,30.70
2019-03-21T05:17:37.259Z,30.43
2019-03-21T05:20:14.250Z,32.33
2019-03-21T05:22:44.922Z,31.68
2019-03-21T05:25:16.194Z,31.93
2019-03-21T05:27:47.387Z,32.25
2019-03-21T05:30:23.937Z,32.35
2019-03-21T05:32:55.239Z,32.10
2019-03-21T05:35:26.542Z,31.37
2019-03-21T05:37:57.971Z,30.50
2019-03-21T05:40:29.257Z,31.60
2019-03-21T05:43:04.112Z,32.00
2019-03-21T05:45:35.307Z,29.60
2019-03-21T05:48:09.238Z,29.92
2019-03-21T05:50:40.989Z,30.90
2019-03-21T05:53:12.431Z,30.50
2019-03-21T05:55:43.953Z,30.62
2019-03-21T05:58:15.313Z,29.63
2019-03-21T06:00:47.044Z,31.42
2019-03-21T06:03:21.294Z,29.40
2019-03-21T06:05:56.716Z,29.60
2019-03-21T06:08:30.824Z,29.85
2019-03-21T06:11:02.225Z,27.20
2019-03-21T06:13:33.564Z,28.05
2019-03-21T06:16:10.552Z,28.15
2019-03-21T06:19:14.648Z,29.98
2019-03-21T06:22:06.310Z,28.67
2019-03-21T06:25:03.107Z,31.15
2019-03-21T06:27:34.267Z,29.93
2019-03-21T06:30:08.803Z,29.10
2019-03-21T06:32:40.210Z,29.40
2019-03-21T06:35:24.116Z,29.42
2019-03-21T06:37:55.494Z,29.00
2019-03-21T06:40:26.881Z,29.13
2019-03-21T06:42:58.147Z,28.70
2019-03-21T06:45:30.167Z,29.57
2019-03-21T06:48:01.775Z,29.98
2019-03-21T06:50:33.637Z,28.85
2019-03-21T06:53:05.782Z,29.63
2019-03-21T06:55:39.735Z,29.30
2019-03-21T06:58:12.248Z,28.65
2019-03-21T07:00:44.104Z,29.35
2019-03-21T07:03:18.302Z,30.00
2019-03-21T07:05:51.568Z,30.82
2019-03-21T07:08:23.422Z,30.15
2019-03-21T07:10:54.933Z,30.57
2019-03-21T07:13:26.427Z,29.00
2019-03-21T07:15:57.670Z,29.00
2019-03-21T07:18:31.815Z,26.33
2019-03-21T07:21:05.015Z,25.07
2019-03-21T07:23:36.485Z,24.13
2019-03-21T07:26:34.978Z,26.43
2019-03-21T07:29:05.802Z,24.73
2019-03-21T07:31:40.979Z,26.77
2019-03-21T07:34:12.517Z,24.80
2019-03-21T07:36:47.811Z,26.77
2019-03-21T07:39:37.079Z,27.35
2019-03-21T07:42:00.928Z,26.40
2019-03-21T07:44:31.299Z,27.20
2019-03-21T07:47:12.087Z,25.40
2019-03-21T07:49:37.409Z,25.40
2019-03-21T07:52:09.658Z,25.07
2019-03-21T07:54:41.983Z,23.60
2019-03-21T07:57:13.436Z,23.43
2019-03-21T07:59:44.616Z,23.87
2019-03-21T08:02:16.277Z,24.73
2019-03-21T08:04:49.794Z,24.30
2019-03-21T08:07:24.379Z,25.10
2019-03-21T08:09:55.696Z,24.00
2019-03-21T08:12:27.478Z,25.23
2019-03-21T08:15:00.583Z,24.47
2019-03-21T08:17:31.960Z,26.03
2019-03-21T08:20:03.155Z,25.80
2019-03-21T08:22:34.793Z,24.93
2019-03-21T08:25:07.197Z,25.93
2019-03-21T08:27:38.834Z,22.90
2019-03-21T08:30:32.434Z,26.67
2019-03-21T08:33:04.812Z,25.63
2019-03-21T08:35:36.090Z,25.57
2019-03-21T08:38:07.708Z,25.47
2019-03-21T08:40:39.342Z,27.63
2019-03-21T08:43:10.736Z,26.13
2019-03-21T08:45:41.981Z,27.60
2019-03-21T08:48:13.402Z,26.77
2019-03-21T08:50:46.542Z,27.40
2019-03-21T08:53:20.644Z,27.97
2019-03-21T08:55:52.206Z,27.70
2019-03-21T08:58:23.479Z,26.80
2019-03-21T09:01:07.415Z,28.13
2019-03-21T09:03:41.313Z,27.47
2019-03-21T09:06:12.800Z,27.80
2019-03-21T09:08:44.608Z,26.57
2019-03-21T09:11:23.967Z,27.63
2019-03-21T09:13:55.327Z,28.23
2019-03-21T09:16:27.873Z,27.70
2019-03-21T09:19:05.026Z,27.93
2019-03-21T09:21:38.146Z,28.47
2019-03-21T09:24:09.715Z,29.83
2019-03-21T09:26:41.014Z,28.40
2019-03-21T09:29:12.367Z,28.00
2019-03-21T09:31:43.816Z,27.70
2019-03-21T09:34:15.010Z,31.10
2019-03-21T09:36:46.529Z,28.17
2019-03-21T09:39:17.981Z,27.40
2019-03-21T09:41:49.119Z,28.80
2019-03-21T09:44:26.248Z,27.97
2019-03-21T09:46:57.953Z,26.93
2019-03-21T09:49:29.251Z,27.63
2019-03-21T09:52:00.514Z,27.90
2019-03-21T09:54:32.059Z,28.17
2019-03-21T09:57:03.673Z,27.10
2019-03-21T09:59:35.165Z,28.47
2019-03-21T10:02:06.601Z,28.53
2019-03-21T10:04:37.865Z,28.30
2019-03-21T10:07:09.348Z,25.90
2019-03-21T10:09:40.891Z,27.40
2019-03-21T10:12:12.262Z,28.00
2019-03-21T10:14:43.917Z,29.23
2019-03-21T10:17:15.688Z,27.10
2019-03-21T10:19:48.465Z,25.27
2019-03-21T10:22:20.224Z,26.70
2019-03-21T10:24:51.714Z,24.07
2019-03-21T10:27:23.046Z,24.80
2019-03-21T10:29:54.389Z,24.83
2019-03-21T10:32:25.828Z,25.47
2019-03-21T10:34:57.041Z,26.07
2019-03-21T10:37:28.615Z,25.50
2019-03-21T10:39:59.889Z,25.43
2019-03-21T10:42:31.203Z,26.63
2019-03-21T10:45:02.624Z,26.97
2019-03-21T10:47:34.247Z,28.10
2019-03-21T10:50:06.959Z,27.30
2019-03-21T10:52:38.361Z,27.20
2019-03-21T10:55:09.731Z,25.97
2019-03-21T10:57:42.862Z,28.37
2019-03-21T11:00:16.197Z,26.90
2019-03-21T11:02:47.617Z,28.70
2019-03-21T11:05:23.187Z,29.40
2019-03-21T11:07:58.214Z,28.07
2019-03-21T11:10:34.567Z,27.13
2019-03-21T11:13:08.143Z,28.57
2019-03-21T11:15:40.045Z,25.80
2019-03-21T11:18:14.712Z,27.10
2019-03-21T11:20:51.336Z,28.00
2019-03-21T11:23:22.738Z,26.00
2019-03-21T11:25:54.413Z,24.60
2019-03-21T11:28:31.493Z,25.97
2019-03-21T11:31:04.622Z,25.90
2019-03-21T11:33:36.270Z,25.10
2019-03-21T11:36:07.563Z,25.77
2019-03-21T11:38:38.920Z,24.00
2019-03-21T11:41:10.444Z,24.80
2019-03-21T11:43:41.980Z,25.70
2019-03-21T11:46:13.389Z,26.17
2019-03-21T11:48:44.773Z,25.70
2019-03-21T11:51:16.143Z,24.70
2019-03-21T11:53:47.376Z,24.47
2019-03-21T11:56:18.566Z,25.90
2019-03-21T11:58:50.035Z,26.80
2019-03-21T12:01:21.429Z,25.97
2019-03-21T12:03:52.693Z,27.13
2019-03-21T12:06:24.129Z,27.60
2019-03-21T12:08:55.302Z,26.90
2019-03-21T12:11:26.598Z,26.20
2019-03-21T12:13:58.175Z,25.40
2019-03-21T12:16:29.472Z,24.87
2019-03-21T12:19:01.126Z,26.10
2019-03-21T12:21:32.578Z,26.50
2019-03-21T12:24:03.869Z,23.47
2019-03-21T12:26:35.351Z,25.10
2019-03-21T12:29:07.334Z,25.20
2019-03-21T12:31:39.399Z,25.10
2019-03-21T12:34:10.856Z,25.30
2019-03-21T12:36:46.264Z,25.03
2019-03-21T12:39:25.302Z,23.10
2019-03-21T12:42:02.341Z,26.37
2019-03-21T12:44:34.238Z,26.10
2019-03-21T12:47:09.275Z,25.37
2019-03-21T12:49:42.570Z,24.40
2019-03-21T12:52:18.461Z,22.93
2019-03-21T12:54:53.340Z,25.03
2019-03-21T12:57:30.339Z,23.97
2019-03-21T13:00:02.086Z,23.30
2019-03-21T13:02:36.849Z,25.23
2019-03-21T13:05:23.135Z,25.80
2019-03-21T13:07:57.546Z,25.43
2019-03-21T13:10:42.122Z,24.60
2019-03-21T13:13:32.002Z,26.43
2019-03-21T13:16:06.584Z,24.33
2019-03-21T13:18:38.489Z,23.83
2019-03-21T13:21:17.941Z,24.00
2019-03-21T13:24:05.008Z,24.43
2019-03-21T13:26:49.209Z,24.83
2019-03-21T13:29:26.177Z,23.00
2019-03-21T13:32:10.217Z,23.77
2019-03-21T13:34:53.264Z,23.70
2019-03-21T13:37:39.376Z,24.47
2019-03-21T13:40:24.107Z,24.40
2019-03-21T13:43:24.610Z,23.47
2019-03-21T13:46:06.389Z,23.30
2019-03-21T13:48:56.003Z,23.43
2019-03-21T13:51:45.815Z,23.90
2019-03-21T13:54:17.507Z,23.70
2019-03-21T13:56:49.409Z,24.80
2019-03-21T13:59:21.090Z,24.43
2019-03-21T14:02:03.593Z,23.90
2019-03-21T14:05:33.264Z,22.97
2019-03-21T14:11:35.013Z,23.63
2019-03-21T14:14:29.248Z,23.10
2019-03-21T14:17:45.155Z,22.40
2019-03-21T14:20:30.538Z,23.57
2019-03-21T14:23:19.461Z,24.33
2019-03-21T14:26:01.256Z,23.97
2019-03-21T14:28:43.850Z,24.83
2019-03-21T14:31:44.895Z,24.80
2019-03-21T14:34:34.734Z,24.33
2019-03-21T14:37:27.961Z,24.60
2019-03-21T14:40:12.668Z,23.27
2019-03-21T14:43:15.252Z,23.90
2019-03-21T14:46:15.107Z,24.50
2019-03-21T14:48:55.681Z,24.20
2019-03-21T14:51:46.558Z,23.93
2019-03-21T14:54:47.164Z,24.20
2019-03-21T14:57:24.990Z,25.40
2019-03-21T15:00:04.853Z,25.70
2019-03-21T15:03:09.585Z,26.47
2019-03-21T15:06:10.631Z,24.43
2019-03-21T15:09:15.215Z,27.80
2019-03-21T15:12:12.151Z,28.10
2019-03-21T15:18:46.091Z,24.50
2019-03-21T15:21:17.586Z,24.70
2019-03-21T15:24:45.041Z,23.70
2019-03-21T15:31:31.648Z,25.90
2019-03-21T15:34:49.812Z,26.57
2019-03-21T15:37:38.913Z,26.87
2019-03-21T15:41:06.057Z,26.23
2019-03-21T15:43:51.908Z,24.20
2019-03-21T15:46:51.261Z,26.53
2019-03-21T15:50:03.641Z,24.30
2019-03-21T15:53:56.021Z,25.30
2019-03-21T15:55:47.032Z,27.07
2019-03-21T15:58:51.457Z,26.00
2019-03-21T16:04:29.255Z,28.00
2019-03-21T16:07:12.256Z,27.00
2019-03-21T16:09:57.139Z,27.03
2019-03-21T16:12:43.329Z,29.33
2019-03-21T16:15:30.188Z,28.70
2019-03-21T16:18:21.161Z,28.73
2019-03-21T16:21:24.827Z,27.67
2019-03-21T16:24:24.151Z,30.00
2019-03-21T16:27:38.445Z,31.70
2019-03-21T16:30:28.479Z,30.00
2019-03-21T16:33:09.979Z,30.10
2019-03-21T16:35:49.026Z,30.27
2019-03-21T16:38:36.014Z,31.37
2019-03-21T16:41:19.685Z,30.17
2019-03-21T16:43:51.625Z,31.40
2019-03-21T16:46:40.606Z,32.93
2019-03-21T16:49:14.591Z,32.57
2019-03-21T16:51:51.660Z,34.03
2019-03-21T16:54:52.917Z,34.70
2019-03-21T16:57:32.363Z,36.10
2019-03-21T17:00:12.361Z,36.40
2019-03-21T17:02:47.394Z,37.10
2019-03-21T17:05:27.035Z,37.50
2019-03-21T17:08:11.232Z,40.77
2019-03-21T17:10:38.583Z,39.27
2019-03-21T17:13:10.966Z,39.83
2019-03-21T17:15:49.199Z,40.33
2019-03-21T17:18:22.523Z,42.13
2019-03-21T17:21:00.052Z,42.37
2019-03-21T17:23:36.884Z,40.30
2019-03-21T17:26:15.756Z,41.53
2019-03-21T17:28:50.655Z,39.63
2019-03-21T17:31:30.210Z,38.63
2019-03-21T17:34:04.339Z,38.03
2019-03-21T17:36:37.941Z,40.93
2019-03-21T17:39:13.405Z,40.53
2019-03-21T17:41:45.083Z,42.27
2019-03-21T17:44:19.807Z,40.70
2019-03-21T17:46:59.206Z,43.70
2019-03-21T17:49:30.949Z,41.97
2019-03-21T17:52:14.794Z,41.93
2019-03-21T17:54:47.563Z,44.80
2019-03-21T17:57:19.128Z,42.37
2019-03-21T17:59:59.127Z,44.90
2019-03-21T18:02:28.022Z,44.10
2019-03-21T18:05:00.700Z,43.37
2019-03-21T18:07:36.459Z,44.53
2019-03-21T18:10:27.096Z,44.90
2019-03-21T18:13:01.754Z,42.60
2019-03-21T18:15:37.205Z,44.70
2019-03-21T18:18:14.026Z,46.47
2019-03-21T18:20:45.688Z,45.30
2019-03-21T18:23:19.105Z,46.60
2019-03-21T18:25:50.603Z,46.30
2019-03-21T18:28:22.083Z,47.00
2019-03-21T18:30:53.364Z,47.43
2019-03-21T18:33:24.708Z,45.60
2019-03-21T18:35:56.137Z,45.80
2019-03-21T18:38:30.791Z,44.77
2019-03-21T18:41:04.786Z,46.17
2019-03-21T18:43:36.399Z,46.70
2019-03-21T18:46:12.800Z,45.50
2019-03-21T18:48:56.965Z,47.43
2019-03-21T18:51:41.134Z,47.33
2019-03-21T18:54:17.650Z,45.70
2019-03-21T18:56:49.300Z,46.67
2019-03-21T18:59:22.808Z,48.60
2019-03-21T19:02:24.129Z,48.90
2019-03-21T19:04:55.785Z,50.10
2019-03-21T19:07:30.541Z,48.70
2019-03-21T19:10:36.921Z,48.50
2019-03-21T19:13:30.220Z,46.73
2019-03-21T19:16:07.475Z,47.90
2019-03-21T19:25:44.391Z,47.13
2019-03-21T19:28:15.971Z,46.93
2019-03-21T19:30:47.400Z,47.83
2019-03-21T19:33:18.728Z,48.47
2019-03-21T19:35:49.908Z,50.87
2019-03-21T19:38:24.110Z,52.27
2019-03-21T19:40:55.821Z,50.30
2019-03-21T19:43:27.244Z,50.73
2019-03-21T19:46:05.380Z,49.17
2019-03-21T19:48:45.718Z,48.83
2019-03-21T19:51:10.990Z,48.83
2019-03-21T19:53:45.043Z,49.17
2019-03-21T19:56:16.564Z,53.40
2019-03-21T19:58:48.045Z,51.80
2019-03-21T20:01:19.572Z,50.67
2019-03-21T20:03:52.365Z,52.40
2019-03-21T20:06:25.106Z,50.90
2019-03-21T20:09:00.209Z,54.60
2019-03-21T20:11:38.243Z,54.40
2019-03-21T20:14:14.902Z,54.83
2019-03-21T20:16:46.214Z,54.10
2019-03-21T20:19:19.863Z,54.90
2019-03-21T20:21:51.238Z,57.80
2019-03-21T20:24:22.493Z,60.10
2019-03-21T20:26:55.865Z,53.73
2019-03-21T20:29:29.594Z,54.77
2019-03-21T20:32:19.927Z,55.70
2019-03-21T20:34:43.615Z,53.70
2019-03-21T20:37:17.067Z,54.87
2019-03-21T20:39:51.886Z,55.00
2019-03-21T20:42:31.843Z,53.67
2019-03-21T20:45:09.017Z,54.23
2019-03-21T20:47:44.367Z,54.40
2019-03-21T20:50:18.440Z,51.63
2019-03-21T20:52:52.940Z,52.07
2019-03-21T20:55:31.529Z,52.13
2019-03-21T20:58:05.040Z,52.07
2019-03-21T21:00:53.885Z,54.10
2019-03-21T21:03:25.843Z,54.13
2019-03-21T21:06:01.944Z,52.87
2019-03-21T21:08:36.229Z,53.60
2019-03-21T21:11:11.816Z,54.97
2019-03-21T21:13:50.026Z,57.40
2019-03-21T21:16:30.875Z,54.73
2019-03-21T21:19:13.540Z,53.80
2019-03-21T21:21:46.075Z,54.93
2019-03-21T21:24:17.738Z,57.30
2019-03-21T21:26:51.606Z,56.57
2019-03-21T21:29:26.557Z,55.73
2019-03-21T21:32:00.985Z,55.60
2019-03-21T21:34:40.677Z,55.10
2019-03-21T21:37:21.413Z,54.80
2019-03-21T21:40:02.855Z,55.57
2019-03-21T21:43:03.463Z,53.80
2019-03-21T21:45:49.825Z,57.03
2019-03-21T21:48:28.941Z,56.13
2019-03-21T21:51:04.908Z,56.10
2019-03-21T21:53:39.927Z,54.07
2019-03-21T21:56:17.657Z,51.97
2019-03-21T21:58:47.747Z,54.00
2019-03-21T22:01:19.232Z,54.83
2019-03-21T22:04:03.835Z,54.60
2019-03-21T22:06:41.491Z,56.67
2019-03-21T22:09:39.395Z,55.27
2019-03-21T22:12:22.389Z,54.53
2019-03-21T22:15:01.651Z,57.50
2019-03-21T22:17:37.072Z,59.70
2019-03-21T22:20:12.020Z,57.47
2019-03-21T22:22:44.527Z,55.53
2019-03-21T22:25:19.620Z,55.83
2019-03-21T22:27:50.992Z,56.33
2019-03-21T22:30:25.259Z,58.40
2019-03-21T22:32:59.638Z,58.53
2019-03-21T22:35:33.994Z,58.73
2019-03-21T22:38:05.357Z,60.43
2019-03-21T22:40:39.837Z,58.63
2019-03-21T22:43:14.142Z,58.27
2019-03-21T22:45:45.467Z,58.20
2019-03-21T22:48:17.002Z,61.43
2019-03-21T22:50:51.672Z,59.47
2019-03-21T22:53:25.805Z,59.17
2019-03-21T22:55:59.655Z,57.97
2019-03-21T22:58:37.809Z,62.40
2019-03-21T23:01:20.505Z,58.10
2019-03-21T23:03:53.798Z,58.80
2019-03-21T23:06:27.175Z,56.63
2019-03-21T23:09:00.193Z,57.13
2019-03-21T23:11:34.678Z,57.53
2019-03-21T23:14:08.229Z,57.70
2019-03-21T23:16:44.650Z,56.40
2019-03-21T23:19:15.375Z,54.37
2019-03-21T23:21:46.773Z,55.27
2019-03-21T23:24:18.540Z,56.03
2019-03-21T23:26:53.193Z,56.50
2019-03-21T23:29:22.893Z,53.20
2019-03-21T23:31:58.983Z,56.47
2019-03-21T23:34:32.587Z,56.57
2019-03-21T23:37:07.131Z,57.20
2019-03-21T23:39:38.721Z,57.00
2019-03-21T23:42:10.997Z,55.97
2019-03-21T23:44:42.687Z,60.33
2019-03-21T23:47:15.738Z,59.47
2019-03-21T23:49:48.042Z,55.63
2019-03-21T23:52:22.451Z,54.90
2019-03-21T23:54:56.627Z,58.67
2019-03-21T23:57:29.537Z,58.63
